Startpagina
METAR-TAF:

METAR-TAF

Vliegvelden :

Rotterdam The Hague Airport

Rotterdam, Nederland

breedte: 51-57N, lengte: 004-27E, hoogte: -5 m

Actueel weer

Dit bericht is 28 minuten geleden gemaakt, om 12:55 UTC
Wind 9 kt uit het zuidzuidoosten, variërend tussen het oostzuidoosten en het zuiden
Temperatuur 10°C
Vochtigheid 76%
Druk 1002 hPa
Zicht 10 km of meer

METAR: EHRD 221255Z AUTO 16009KT 120V190 9999 NSC 10/06 Q1002 NOSIG

Tijdstip: 14:23 (13:23 UTC)

Verwachting

Dit bericht is 2 uur en het 14 minuten geleden gemaakt, om 11:09 UTC
Verwachting geldig van 22 om 12 UTC tot 23 om 18 UTC
Wind 13 kt uit het zuidzuidoosten
Zicht 10 km of meer
geen wolken onder 1500 m en geen cumulonimbus
Wijzigt naar
van 22 om 14 UTC tot 22 om 17 UTC
Wind 11 kt uit het zuidoosten
Wijzigt naar
van 22 om 22 UTC tot 23 om 01 UTC
Wind 13 kt uit het oosten

TAF: EHRD 221109Z 2212/2318 16013KT CAVOK BECMG 2214/2217 13011KT BECMG 2222/2301 10013KT

Waarnemingen en weersverwachtingen van meer dan 4000 vliegvelden (METAR en TAF).

De beschikbare stations zijn de gele en rode punten op de kaart.

Ga met uw muis naar het station om de naam te zien.

Klik dan om waarnemingen en weersverwachtingen te zien.

kaart wijzigen: klik op de groene knoppen met een zwart kruis om in te zoomen, op de groene knop met een streepje om uit te zoomen of op de groene pijlen voor aangrenzende kaarten.


METAR-TAF: